Campanya meteocatpedra

Dades EMA Riudoms

?
?
Resum diari 22:30 TU
Dades diàries de l'estació meteorològica
Temperatura mitjana 21.6 °C
Temperatura màxima 28.6 °C 13:31 TU
Temperatura mínima 14.2 °C 4:22 TU
Humitat relativa mitjana 59%
Precipitació acumulada 0.0 mm
Ratxa màxima del vent (2 m) 16.9 km/h - 210º 11:30 TU
Irradiació solar global 30.4 MJ/m2

El tram horari està expressat en Temps Universal (TU). Cal sumar una hora en horari d'hivern i dues en horari d'estiu per passar a l'hora oficial.

Riudoms

Metadades estació meteorol´gica
Municipi Riudoms
Comarca Baix Camp
Altitud 158 m
Data alta 19.10.1999
Estat actual Operativa
Dades de període
Període
TU
TM
°C
TX
°C
TN
°C
HRM
%
PPT
mm
VVM (2 m)
km/h
DVM (2 m)
graus
VVX (2 m)
km/h
RS
W/m2
00:00 - 00:30 14.7 14.8 14.5 83 0.0 1.4 359 3.2 0
00:30 - 01:00 15.2 15.8 14.5 78 0.0 1.8 341 6.1 0
01:00 - 01:30 15.2 15.6 14.7 78 0.0 1.4 344 3.2 0
01:30 - 02:00 14.7 14.9 14.6 80 0.0 1.4 344 3.2 0
02:00 - 02:30 14.7 14.9 14.6 81 0.0 1.8 337 4.3 0
02:30 - 03:00 15.4 15.6 14.9 80 0.0 1.4 327 3.6 0
03:00 - 03:30 15.3 15.5 15.2 80 0.0 1.8 346 3.2 0
03:30 - 04:00 14.9 15.2 14.5 81 0.0 1.4 342 2.9 0
04:00 - 04:30 14.3 14.5 14.2 82 0.0 1.4 342 3.6 1
04:30 - 05:00 14.3 14.4 14.3 81 0.0 1.8 354 4.3 14
05:00 - 05:30 15.3 16.5 14.4 76 0.0 1.4 359 4.0 66
05:30 - 06:00 17.7 19.0 16.5 69 0.0 1.1 336 4.0 156
06:00 - 06:30 20.7 22.8 19.1 58 0.0 0.4 298 1.8 252
06:30 - 07:00 23.3 23.9 22.7 50 0.0 1.1 67 4.3 353
07:00 - 07:30 24.1 25.5 23.5 47 0.0 1.1 118 4.0 454
07:30 - 08:00 25.5 26.0 24.9 43 0.0 2.2 166 7.9 552
08:00 - 08:30 26.4 27.0 26.0 41 0.0 2.9 147 8.3 644
08:30 - 09:00 27.2 27.8 26.9 39 0.0 3.6 148 9.4 727
09:00 - 09:30 27.4 27.9 27.1 41 0.0 5.0 176 12.2 798
09:30 - 10:00 27.0 27.5 26.6 43 0.0 5.8 177 12.6 862
10:00 - 10:30 27.3 27.6 26.8 43 0.0 5.0 184 16.2 912
10:30 - 11:00 27.6 28.1 26.7 41 0.0 6.1 190 14.8 951
11:00 - 11:30 27.0 27.6 26.4 44 0.0 6.5 188 16.2 974
11:30 - 12:00 26.6 27.4 26.2 46 0.0 6.5 184 16.9 985
12:00 - 12:30 26.9 27.5 26.3 45 0.0 6.8 200 16.9 980
12:30 - 13:00 27.3 28.0 26.6 42 0.0 6.1 180 14.8 961
13:00 - 13:30 27.6 28.2 27.1 39 0.0 5.4 174 13.0 931
13:30 - 14:00 27.3 28.6 26.3 39 0.0 6.8 180 15.8 888
14:00 - 14:30 26.7 27.0 26.4 44 0.0 6.5 183 15.5 832
14:30 - 15:00 26.8 27.3 26.3 41 0.0 6.8 184 16.6 764
15:00 - 15:30 26.6 27.1 26.2 40 0.0 6.8 176 15.8 687
15:30 - 16:00 26.7 27.3 26.3 38 0.0 5.4 174 15.1 602
16:00 - 16:30 26.2 26.8 25.8 40 0.0 5.4 168 13.7 507
16:30 - 17:00 25.9 26.2 25.3 41 0.0 5.0 188 11.5 410
17:00 - 17:30 24.5 25.1 24.2 49 0.0 5.0 182 14.8 308
17:30 - 18:00 23.9 24.2 23.6 54 0.0 4.3 190 13.0 207
18:00 - 18:30 23.3 23.6 22.8 55 0.0 2.2 175 8.6 94
18:30 - 19:00 22.2 22.8 21.5 62 0.0 0.7 160 3.2 20
19:00 - 19:30 20.7 21.5 19.5 70 0.0 1.1 331 4.3 6
19:30 - 20:00 18.9 19.5 18.4 77 0.0 1.1 354 2.9 0
20:00 - 20:30 18.2 18.4 17.9 77 0.0 1.1 15 3.6 0
20:30 - 21:00 17.7 17.9 17.2 76 0.0 0.7 335 2.9 0
21:00 - 21:30 17.0 17.2 16.9 79 0.0 1.4 334 4.0 0
21:30 - 22:00 17.1 17.3 16.8 79 0.0 1.1 332 4.0 0
22:00 - 22:30 16.5 16.8 16.2 78 0.0 0.7 316 4.7 0
22:30 - 23:00 16.1 16.6 15.8 75 0.0 1.8 5 4.0 0
23:00 - 23:30 (s/d) (s/d) (s/d) (s/d) (s/d) (s/d) (s/d) (s/d) (s/d)

Les dades en taronja només han passat un control de qualitat automàtic. Resta pendent la seva validació definitiva.